Shildon, United Kingdom
Current Conditions -  °F | °C
As of 2:20 PM on Monday 26 Jan 2015 (Local Time) from EGNV Reporting Station
Few Clouds Few Clouds  
Wind Chill: 37°   Ceiling: Unl
Heat Index: 45°   Visibility: 6mi
Dew Point: 34°   Wind: 17mph
Humidity: 66%   Direction: 290°WNW
Pressure: 30.15"   Gusts: NA
Location:  54.63°N, 1.64°W
Report Text: EGNV 261420Z 29015KT 9999 FEW030 07/01 Q1021
Loading
Personal Weather Stations






























Interactive Weather Map New forecast layout! Learn more

10-Day Weather Forecast

Advertisements
Track Severe Weather on mobile